createdAt,value
2019-05-18T00:00:54.019Z,13.08
2019-05-18T00:03:21.134Z,12.77
2019-05-18T00:05:48.314Z,12.52
2019-05-18T00:08:15.390Z,12.51
2019-05-18T00:10:42.488Z,12.62
2019-05-18T00:13:09.631Z,12.37
2019-05-18T00:15:36.855Z,12.35
2019-05-18T00:18:04.417Z,12.47
2019-05-18T00:20:31.480Z,12.55
2019-05-18T00:22:58.682Z,12.57
2019-05-18T00:25:25.919Z,12.58
2019-05-18T00:27:55.321Z,12.55
2019-05-18T00:30:22.416Z,12.53
2019-05-18T00:32:50.677Z,12.55
2019-05-18T00:35:18.120Z,12.60
2019-05-18T00:37:45.289Z,12.58
2019-05-18T00:40:12.351Z,12.54
2019-05-18T00:42:39.535Z,12.59
2019-05-18T00:45:06.988Z,12.69
2019-05-18T00:47:41.588Z,12.64
2019-05-18T00:50:06.690Z,12.60
2019-05-18T00:52:35.642Z,12.49
2019-05-18T00:55:03.147Z,12.51
2019-05-18T00:57:30.338Z,12.39
2019-05-18T00:59:59.202Z,12.39
2019-05-18T01:02:26.248Z,12.34
2019-05-18T01:04:53.395Z,12.28
2019-05-18T01:07:21.593Z,12.20
2019-05-18T01:09:48.721Z,12.03
2019-05-18T01:12:18.199Z,11.87
2019-05-18T01:14:45.231Z,11.86
2019-05-18T01:17:12.375Z,11.79
2019-05-18T01:19:39.539Z,11.87
2019-05-18T01:22:08.063Z,11.90
2019-05-18T01:24:38.642Z,11.96
2019-05-18T01:27:05.726Z,11.97
2019-05-18T01:29:32.781Z,11.73
2019-05-18T01:31:59.835Z,11.75
2019-05-18T01:34:26.959Z,11.73
2019-05-18T01:36:54.084Z,11.65
2019-05-18T01:39:21.148Z,11.59
2019-05-18T01:41:48.242Z,11.52
2019-05-18T01:44:15.325Z,11.40
2019-05-18T01:46:42.371Z,11.41
2019-05-18T01:49:09.559Z,11.50
2019-05-18T01:51:36.713Z,11.64
2019-05-18T01:54:04.912Z,11.62
2019-05-18T01:56:31.993Z,11.60
2019-05-18T01:58:59.058Z,11.60
2019-05-18T02:01:28.226Z,11.67
2019-05-18T02:03:55.503Z,11.57
2019-05-18T02:06:24.382Z,11.40
2019-05-18T02:08:51.422Z,11.57
2019-05-18T02:11:19.165Z,11.55
2019-05-18T02:13:46.224Z,11.50
2019-05-18T02:16:14.560Z,11.54
2019-05-18T02:18:41.647Z,11.53
2019-05-18T02:21:08.875Z,11.50
2019-05-18T02:23:35.920Z,11.55
2019-05-18T02:26:04.066Z,11.66
2019-05-18T02:28:31.102Z,11.70
2019-05-18T02:30:58.582Z,11.69
2019-05-18T02:33:25.656Z,11.77
2019-05-18T02:35:52.702Z,11.83
2019-05-18T02:38:19.724Z,12.00
2019-05-18T02:40:47.247Z,12.08
2019-05-18T02:43:15.316Z,12.14
2019-05-18T02:45:42.486Z,12.07
2019-05-18T02:48:09.660Z,12.08
2019-05-18T02:50:37.908Z,11.78
2019-05-18T02:53:05.082Z,11.12
2019-05-18T02:55:32.133Z,11.01
2019-05-18T02:57:59.408Z,10.83
2019-05-18T03:00:26.859Z,10.57
2019-05-18T03:02:53.985Z,10.38
2019-05-18T03:05:21.057Z,10.41
2019-05-18T03:07:49.879Z,10.01
2019-05-18T03:10:17.098Z,9.71
2019-05-18T03:12:44.154Z,9.63
2019-05-18T03:15:11.640Z,9.54
2019-05-18T03:17:38.722Z,9.55
2019-05-18T03:20:07.775Z,9.63
2019-05-18T03:22:34.837Z,9.71
2019-05-18T03:25:01.895Z,10.18
2019-05-18T03:27:28.940Z,10.47
2019-05-18T03:29:55.999Z,10.59
2019-05-18T03:32:23.360Z,10.66
2019-05-18T03:34:51.854Z,10.71
2019-05-18T03:37:18.913Z,10.75
2019-05-18T03:39:45.962Z,10.72
2019-05-18T03:42:14.101Z,10.80
2019-05-18T03:44:42.338Z,10.89
2019-05-18T03:47:09.419Z,10.87
2019-05-18T03:49:38.240Z,11.20
2019-05-18T03:52:05.310Z,11.41
2019-05-18T03:54:32.579Z,11.47
2019-05-18T03:56:59.620Z,11.55
2019-05-18T03:59:26.635Z,11.73
2019-05-18T04:01:53.854Z,11.83
2019-05-18T04:04:20.894Z,11.66
2019-05-18T04:06:49.785Z,11.77
2019-05-18T04:09:18.120Z,12.11
2019-05-18T04:11:45.138Z,12.23
2019-05-18T04:14:12.369Z,12.20
2019-05-18T04:16:39.958Z,12.04
2019-05-18T04:19:07.088Z,12.10
2019-05-18T04:21:39.772Z,12.43
2019-05-18T04:24:06.993Z,12.66
2019-05-18T04:26:34.633Z,12.78
2019-05-18T04:29:01.683Z,12.94
2019-05-18T04:31:32.081Z,13.07
2019-05-18T04:33:57.694Z,12.96
2019-05-18T04:36:25.978Z,12.78
2019-05-18T04:38:54.785Z,12.69
2019-05-18T04:41:25.295Z,12.73
2019-05-18T04:43:56.089Z,12.91
2019-05-18T04:46:23.141Z,12.82
2019-05-18T04:48:50.533Z,12.91
2019-05-18T04:51:19.776Z,13.08
2019-05-18T04:53:47.047Z,13.00
2019-05-18T04:56:17.685Z,13.00
2019-05-18T04:58:50.232Z,12.91
2019-05-18T05:01:19.159Z,12.96
2019-05-18T05:03:47.325Z,13.17
2019-05-18T05:06:14.416Z,13.26
2019-05-18T05:08:44.701Z,13.14
2019-05-18T05:11:11.906Z,13.37
2019-05-18T05:13:40.331Z,13.07
2019-05-18T05:16:07.353Z,13.05
2019-05-18T05:18:34.578Z,13.33
2019-05-18T05:21:02.085Z,13.50
2019-05-18T05:23:29.161Z,13.43
2019-05-18T05:25:56.280Z,13.66
2019-05-18T05:28:23.380Z,13.92
2019-05-18T05:30:50.442Z,13.82
2019-05-18T05:33:24.353Z,13.79
2019-05-18T05:35:52.553Z,13.92
2019-05-18T05:38:19.629Z,13.58
2019-05-18T05:40:48.515Z,13.57
2019-05-18T05:43:15.673Z,13.95
2019-05-18T05:45:42.757Z,14.09
2019-05-18T05:48:10.029Z,13.94
2019-05-18T05:50:37.207Z,13.50
2019-05-18T05:53:04.779Z,13.78
2019-05-18T05:55:32.031Z,14.13
2019-05-18T05:58:00.896Z,14.55
2019-05-18T06:00:29.194Z,14.96
2019-05-18T06:02:56.923Z,15.25
2019-05-18T06:05:25.203Z,15.82
2019-05-18T06:07:54.120Z,16.33
2019-05-18T06:10:21.244Z,16.70
2019-05-18T06:12:48.274Z,17.01
2019-05-18T06:15:15.671Z,17.22
2019-05-18T06:17:42.731Z,17.59
2019-05-18T06:20:09.889Z,17.93
2019-05-18T06:22:40.992Z,18.31
2019-05-18T06:25:14.897Z,17.79
2019-05-18T06:27:43.105Z,17.25
2019-05-18T06:30:12.243Z,17.20
2019-05-18T06:32:39.395Z,17.84
2019-05-18T06:35:07.881Z,18.49
2019-05-18T06:37:37.494Z,19.32
2019-05-18T06:40:04.992Z,18.97
2019-05-18T06:42:33.155Z,18.34
2019-05-18T06:45:00.169Z,19.64
2019-05-18T06:47:28.451Z,19.79
2019-05-18T06:49:55.979Z,21.54
2019-05-18T06:52:37.945Z,22.68
2019-05-18T06:55:06.505Z,23.73
2019-05-18T06:57:38.066Z,24.84
2019-05-18T07:00:11.026Z,25.62
2019-05-18T07:02:39.358Z,27.21
2019-05-18T07:05:06.487Z,27.59
2019-05-18T07:07:35.020Z,27.66
2019-05-18T07:10:03.211Z,28.05
2019-05-18T07:12:30.760Z,28.36
2019-05-18T07:15:00.357Z,28.72
2019-05-18T07:17:26.916Z,28.88
2019-05-18T07:19:53.976Z,28.79
2019-05-18T07:22:21.079Z,28.83
2019-05-18T07:24:48.101Z,29.02
2019-05-18T07:27:15.156Z,29.11
2019-05-18T07:29:42.256Z,29.59
2019-05-18T07:32:09.312Z,30.66
2019-05-18T07:34:36.693Z,31.61
2019-05-18T07:37:04.066Z,32.48
2019-05-18T07:39:36.060Z,32.16
2019-05-18T07:42:02.988Z,30.93
2019-05-18T07:45:00.383Z,30.95
2019-05-18T07:47:30.547Z,31.36
2019-05-18T07:50:02.055Z,31.88
2019-05-18T07:52:29.333Z,31.26
2019-05-18T07:55:01.794Z,30.53
2019-05-18T07:57:39.020Z,30.17
2019-05-18T08:00:19.084Z,29.37
2019-05-18T08:03:08.299Z,28.99
2019-05-18T08:05:51.546Z,28.57
2019-05-18T08:08:23.013Z,29.24
2019-05-18T08:11:12.323Z,30.95
2019-05-18T08:13:43.511Z,32.54
2019-05-18T08:16:21.583Z,29.26
2019-05-18T08:18:58.174Z,29.41
2019-05-18T08:21:32.550Z,29.76
2019-05-18T08:24:06.559Z,29.65
2019-05-18T08:26:42.040Z,30.80
2019-05-18T08:29:24.376Z,30.69
2019-05-18T08:31:52.310Z,31.04
2019-05-18T08:34:30.509Z,33.61
2019-05-18T08:37:13.008Z,34.27
2019-05-18T08:39:39.996Z,31.68
2019-05-18T08:42:07.018Z,30.77
2019-05-18T08:44:34.157Z,27.42
2019-05-18T08:47:01.659Z,29.29
2019-05-18T08:49:28.644Z,30.13
2019-05-18T08:52:07.943Z,29.78
2019-05-18T08:54:29.567Z,30.58
2019-05-18T08:56:57.272Z,25.30
2019-05-18T08:59:33.537Z,22.26
2019-05-18T09:02:00.676Z,24.11
2019-05-18T09:04:28.127Z,26.36
2019-05-18T09:07:12.396Z,24.09
2019-05-18T09:09:42.725Z,22.03
2019-05-18T09:12:09.970Z,23.54
2019-05-18T09:14:37.608Z,25.30
2019-05-18T09:17:06.524Z,25.89
2019-05-18T09:19:34.800Z,23.25
2019-05-18T09:22:03.700Z,22.27
2019-05-18T09:24:30.836Z,21.54
2019-05-18T09:26:59.158Z,23.24
2019-05-18T09:29:26.405Z,26.29
2019-05-18T09:31:54.786Z,28.02
2019-05-18T09:34:22.360Z,29.57
2019-05-18T09:36:49.476Z,30.32
2019-05-18T09:39:18.812Z,28.13
2019-05-18T09:41:50.250Z,26.46
2019-05-18T09:44:18.894Z,25.17
2019-05-18T09:46:52.522Z,26.62
2019-05-18T09:49:27.806Z,28.74
2019-05-18T09:52:04.368Z,29.97
2019-05-18T09:54:36.518Z,31.68
2019-05-18T09:57:04.021Z,33.18
2019-05-18T09:59:31.736Z,34.71
2019-05-18T10:02:13.136Z,35.82
2019-05-18T10:05:19.067Z,35.54
2019-05-18T10:08:00.251Z,35.30
2019-05-18T10:10:49.807Z,33.58
2019-05-18T10:13:19.181Z,33.61
2019-05-18T10:15:46.419Z,34.65
2019-05-18T10:18:17.503Z,34.80
2019-05-18T10:20:46.454Z,34.92
2019-05-18T10:23:14.078Z,33.33
2019-05-18T10:25:41.974Z,30.55
2019-05-18T10:28:14.864Z,33.13
2019-05-18T10:30:49.247Z,35.01
2019-05-18T10:33:17.731Z,36.07
2019-05-18T10:35:53.067Z,36.34
2019-05-18T10:38:24.676Z,36.97
2019-05-18T10:40:54.570Z,37.37
2019-05-18T10:43:21.918Z,37.78
2019-05-18T10:46:24.477Z,38.12
2019-05-18T10:49:00.568Z,37.12
2019-05-18T10:51:42.802Z,34.58
2019-05-18T10:54:25.170Z,30.92
2019-05-18T10:56:59.030Z,29.73
2019-05-18T11:00:08.450Z,30.64
2019-05-18T11:05:54.772Z,32.05
2019-05-18T11:08:50.648Z,34.13
2019-05-18T11:11:21.645Z,33.23
2019-05-18T11:13:51.152Z,34.01
2019-05-18T11:16:19.528Z,35.06
2019-05-18T11:19:03.912Z,36.25
2019-05-18T11:21:50.460Z,37.21
2019-05-18T11:25:04.905Z,40.13
2019-05-18T11:27:38.344Z,43.58
2019-05-18T11:30:14.623Z,37.26
2019-05-18T11:33:04.566Z,36.48
2019-05-18T11:35:37.055Z,29.77
2019-05-18T11:38:04.687Z,27.82
2019-05-18T11:40:33.685Z,29.38
2019-05-18T11:43:01.667Z,35.62
2019-05-18T11:45:35.715Z,39.67
2019-05-18T11:48:03.570Z,37.42
2019-05-18T11:50:30.855Z,37.00
2019-05-18T11:52:58.146Z,42.21
2019-05-18T11:55:25.335Z,45.11
2019-05-18T11:57:55.087Z,45.67
2019-05-18T12:00:36.312Z,41.24
2019-05-18T12:03:08.689Z,36.20
2019-05-18T12:05:36.118Z,39.85
2019-05-18T12:08:09.874Z,40.79
2019-05-18T12:10:37.055Z,39.97
2019-05-18T12:13:12.472Z,35.68
2019-05-18T12:15:43.434Z,35.78
2019-05-18T12:18:12.968Z,38.38
2019-05-18T12:20:42.541Z,38.59
2019-05-18T12:23:15.251Z,36.63
2019-05-18T12:25:42.499Z,35.11
2019-05-18T12:28:13.090Z,36.79
2019-05-18T12:30:51.314Z,34.16
2019-05-18T12:33:18.833Z,36.53
2019-05-18T12:35:47.698Z,40.53
2019-05-18T12:38:15.118Z,44.32
2019-05-18T12:40:42.460Z,47.91
2019-05-18T12:43:09.646Z,50.27
2019-05-18T12:45:38.035Z,43.29
2019-05-18T12:48:06.184Z,36.63
2019-05-18T12:50:37.858Z,34.47
2019-05-18T12:53:06.365Z,32.75
2019-05-18T12:55:34.649Z,31.47
2019-05-18T12:58:08.266Z,28.85
2019-05-18T13:00:38.929Z,27.35
2019-05-18T13:03:11.420Z,26.54
2019-05-18T13:05:39.585Z,27.34
2019-05-18T13:08:07.371Z,27.90
2019-05-18T13:10:35.972Z,28.42
2019-05-18T13:13:04.129Z,28.63
2019-05-18T13:15:31.546Z,29.51
2019-05-18T13:17:59.072Z,30.34
2019-05-18T13:20:49.204Z,30.47
2019-05-18T13:23:26.666Z,30.39
2019-05-18T13:26:12.696Z,30.75
2019-05-18T13:28:55.186Z,30.24
2019-05-18T13:31:36.142Z,29.83
2019-05-18T13:34:08.010Z,28.74
2019-05-18T13:36:38.176Z,26.30
2019-05-18T13:39:28.526Z,26.22
2019-05-18T13:41:57.861Z,27.24
2019-05-18T13:47:29.418Z,27.18
2019-05-18T13:50:05.547Z,26.43
2019-05-18T13:52:32.900Z,25.87
2019-05-18T13:55:05.670Z,25.22
2019-05-18T13:58:02.135Z,24.89
2019-05-18T14:03:39.691Z,24.30
2019-05-18T14:06:13.995Z,24.26
2019-05-18T14:08:41.381Z,24.31
2019-05-18T14:11:08.377Z,24.08
2019-05-18T14:13:45.551Z,23.97
2019-05-18T14:16:19.614Z,24.09
2019-05-18T14:18:50.404Z,24.07
2019-05-18T14:21:17.377Z,23.90
2019-05-18T14:23:44.364Z,23.75
2019-05-18T14:26:11.366Z,23.72
2019-05-18T14:28:39.243Z,23.93
2019-05-18T14:31:06.261Z,23.52
2019-05-18T14:33:33.257Z,23.36
2019-05-18T14:36:14.812Z,23.75
2019-05-18T14:38:43.243Z,23.42
2019-05-18T14:41:10.211Z,22.21
2019-05-18T14:43:37.194Z,21.79
2019-05-18T14:46:04.216Z,21.54
2019-05-18T14:48:31.290Z,21.64
2019-05-18T14:50:58.709Z,22.15
2019-05-18T14:53:27.595Z,21.88
2019-05-18T14:55:54.570Z,22.12
2019-05-18T14:58:21.532Z,22.63
2019-05-18T15:00:48.558Z,22.95
2019-05-18T15:03:16.838Z,24.11
2019-05-18T15:05:44.207Z,25.52
2019-05-18T15:08:11.248Z,26.35
2019-05-18T15:10:41.006Z,25.92
2019-05-18T15:13:08.015Z,27.55
2019-05-18T15:15:35.024Z,27.11
2019-05-18T15:18:02.211Z,24.53
2019-05-18T15:20:29.292Z,25.05
2019-05-18T15:22:56.294Z,25.63
2019-05-18T15:25:23.296Z,25.48
2019-05-18T15:27:52.225Z,23.79
2019-05-18T15:30:19.524Z,23.96
2019-05-18T15:32:48.412Z,23.19
2019-05-18T15:35:15.817Z,22.82
2019-05-18T15:37:44.095Z,22.67
2019-05-18T15:40:24.148Z,22.65
2019-05-18T15:42:51.837Z,23.59
2019-05-18T15:45:18.860Z,23.74
2019-05-18T15:47:45.829Z,24.36
2019-05-18T15:50:14.737Z,24.53
2019-05-18T15:52:41.999Z,23.95
2019-05-18T15:55:09.287Z,24.07
2019-05-18T15:57:36.325Z,24.20
2019-05-18T16:00:06.682Z,24.74
2019-05-18T16:02:33.959Z,24.41
2019-05-18T16:05:08.620Z,24.00
2019-05-18T16:07:35.685Z,24.01
2019-05-18T16:10:02.761Z,24.70
2019-05-18T16:12:29.775Z,24.81
2019-05-18T16:15:00.446Z,24.47
2019-05-18T16:17:39.008Z,23.66
2019-05-18T16:20:00.360Z,23.63
2019-05-18T16:22:27.371Z,24.42
2019-05-18T16:24:54.388Z,24.72
2019-05-18T16:27:23.365Z,24.88
2019-05-18T16:29:51.447Z,24.62
2019-05-18T16:32:18.407Z,23.90
2019-05-18T16:34:45.486Z,23.75
2019-05-18T16:37:12.804Z,23.69
2019-05-18T16:39:40.542Z,24.13
2019-05-18T16:42:16.371Z,24.69
2019-05-18T16:44:43.457Z,24.95
2019-05-18T16:47:10.551Z,23.56
2019-05-18T16:49:37.534Z,22.91
2019-05-18T16:52:04.858Z,23.08
2019-05-18T16:54:31.930Z,22.44
2019-05-18T16:56:59.021Z,22.38
2019-05-18T16:59:25.958Z,22.28
2019-05-18T17:01:52.949Z,22.07
2019-05-18T17:04:19.919Z,22.33
2019-05-18T17:06:47.391Z,23.32
2019-05-18T17:09:14.444Z,23.21
2019-05-18T17:11:41.494Z,22.76
2019-05-18T17:14:08.482Z,22.71
2019-05-18T17:16:35.691Z,22.03
2019-05-18T17:19:04.884Z,21.30
2019-05-18T17:21:31.870Z,21.26
2019-05-18T17:23:58.827Z,20.63
2019-05-18T17:26:25.817Z,19.72
2019-05-18T17:28:52.921Z,18.36
2019-05-18T17:31:23.213Z,17.69
2019-05-18T17:33:50.293Z,17.46
2019-05-18T17:36:19.641Z,17.40
2019-05-18T17:38:46.501Z,17.37
2019-05-18T17:41:20.439Z,17.41
2019-05-18T17:44:20.849Z,17.27
2019-05-18T17:46:48.823Z,17.28
2019-05-18T17:49:26.523Z,17.27
2019-05-18T17:51:44.782Z,17.28
2019-05-18T17:54:11.798Z,17.20
2019-05-18T17:56:38.896Z,17.32
2019-05-18T17:59:07.673Z,17.54
2019-05-18T18:01:35.011Z,17.90
2019-05-18T18:04:03.332Z,18.21
2019-05-18T18:06:33.616Z,18.32
2019-05-18T18:09:22.008Z,18.19
2019-05-18T18:11:49.141Z,18.10
2019-05-18T18:14:16.269Z,18.03
2019-05-18T18:16:43.265Z,17.96
2019-05-18T18:19:10.363Z,17.98
2019-05-18T18:21:39.664Z,17.82
2019-05-18T18:24:06.627Z,17.51
2019-05-18T18:26:33.652Z,17.33
2019-05-18T18:29:03.778Z,17.31
2019-05-18T18:31:29.672Z,17.25
2019-05-18T18:33:58.585Z,17.05
2019-05-18T18:36:25.581Z,16.71
2019-05-18T18:38:52.570Z,16.56
2019-05-18T18:41:21.480Z,16.44
2019-05-18T18:43:48.507Z,16.37
2019-05-18T18:46:15.537Z,16.27
2019-05-18T18:48:42.539Z,16.18
2019-05-18T18:51:09.534Z,15.93
2019-05-18T18:53:38.503Z,15.92
2019-05-18T18:56:05.913Z,15.88
2019-05-18T18:58:32.880Z,15.85
2019-05-18T19:01:00.068Z,15.93
2019-05-18T19:03:29.147Z,16.13
2019-05-18T19:05:56.187Z,16.29
2019-05-18T19:08:23.329Z,16.37
2019-05-18T19:10:51.762Z,16.45
2019-05-18T19:13:19.977Z,16.51
2019-05-18T19:15:46.969Z,16.79
2019-05-18T19:18:13.944Z,16.97
2019-05-18T19:20:40.950Z,17.14
2019-05-18T19:23:07.970Z,17.03
2019-05-18T19:25:36.169Z,16.43
2019-05-18T19:28:03.196Z,16.03
2019-05-18T19:30:33.407Z,15.88
2019-05-18T19:33:00.608Z,15.85
2019-05-18T19:35:27.615Z,16.11
2019-05-18T19:37:55.104Z,16.47
2019-05-18T19:40:22.101Z,16.98
2019-05-18T19:42:49.103Z,17.18
2019-05-18T19:45:16.395Z,17.13
2019-05-18T19:47:43.932Z,16.95
2019-05-18T19:50:12.047Z,16.78
2019-05-18T19:52:42.755Z,16.68
2019-05-18T19:55:09.861Z,16.52
2019-05-18T19:57:40.100Z,15.97
2019-05-18T20:00:07.460Z,15.84
2019-05-18T20:02:38.744Z,14.84
2019-05-18T20:05:08.487Z,14.46
2019-05-18T20:07:38.627Z,14.49
2019-05-18T20:10:06.032Z,14.70
2019-05-18T20:12:33.058Z,14.79
2019-05-18T20:15:03.711Z,15.18
2019-05-18T20:17:36.904Z,15.25
2019-05-18T20:20:09.120Z,14.93
2019-05-18T20:22:37.620Z,14.71
2019-05-18T20:25:06.858Z,14.74
2019-05-18T20:27:35.995Z,14.89
2019-05-18T20:30:14.214Z,14.59
2019-05-18T20:32:49.318Z,14.27
2019-05-18T20:35:16.839Z,14.09
2019-05-18T20:37:55.378Z,14.02
2019-05-18T20:40:24.894Z,13.98
2019-05-18T20:42:52.087Z,13.95
2019-05-18T20:45:19.644Z,13.95
2019-05-18T20:47:46.686Z,13.99
2019-05-18T20:50:16.776Z,14.01
2019-05-18T20:52:43.790Z,14.06
2019-05-18T20:55:10.787Z,14.03
2019-05-18T20:57:37.745Z,13.91
2019-05-18T21:00:05.207Z,13.96
2019-05-18T21:02:34.494Z,14.08
2019-05-18T21:05:03.344Z,14.43
2019-05-18T21:07:32.567Z,14.83
2019-05-18T21:10:03.006Z,15.20
2019-05-18T21:12:30.417Z,15.40
2019-05-18T21:14:57.446Z,15.47
2019-05-18T21:17:24.603Z,15.55
2019-05-18T21:19:53.939Z,15.65
2019-05-18T21:22:20.897Z,15.56
2019-05-18T21:24:47.931Z,15.35
2019-05-18T21:27:15.603Z,15.27
2019-05-18T21:29:42.624Z,15.54
2019-05-18T21:32:12.375Z,15.65
2019-05-18T21:34:42.682Z,15.78
2019-05-18T21:37:09.683Z,15.94
2019-05-18T21:39:36.965Z,16.07
2019-05-18T21:42:03.938Z,16.07
2019-05-18T21:44:30.941Z,15.93
2019-05-18T21:46:57.976Z,15.45
2019-05-18T21:49:25.134Z,15.20
2019-05-18T21:51:52.236Z,14.86
2019-05-18T21:54:23.609Z,14.79
2019-05-18T21:56:50.882Z,14.88
2019-05-18T21:59:32.084Z,14.93
2019-05-18T22:02:04.641Z,14.95
2019-05-18T22:04:33.011Z,14.99
2019-05-18T22:07:02.206Z,15.01
2019-05-18T22:09:29.436Z,14.97
2019-05-18T22:12:00.108Z,15.07
2019-05-18T22:14:28.561Z,15.06
2019-05-18T22:16:55.605Z,15.12
2019-05-18T22:19:22.578Z,14.96
2019-05-18T22:21:49.574Z,15.09
2019-05-18T22:24:25.733Z,15.08
2019-05-18T22:26:53.019Z,15.11
2019-05-18T22:29:19.985Z,15.03
2019-05-18T22:31:46.911Z,15.16
2019-05-18T22:34:15.951Z,15.17
2019-05-18T22:36:42.923Z,15.18
2019-05-18T22:39:09.864Z,15.18
2019-05-18T22:41:37.236Z,15.14
2019-05-18T22:44:04.197Z,15.22
2019-05-18T22:46:31.222Z,15.36
2019-05-18T22:48:58.225Z,15.40
2019-05-18T22:51:26.417Z,15.39
2019-05-18T22:53:53.405Z,15.23
2019-05-18T22:56:20.429Z,15.34
2019-05-18T22:58:47.475Z,15.46
2019-05-18T23:01:14.611Z,15.49
2019-05-18T23:03:41.635Z,15.62
2019-05-18T23:06:10.523Z,15.69
2019-05-18T23:08:37.484Z,15.36
2019-05-18T23:11:04.457Z,14.93
2019-05-18T23:13:31.400Z,14.80
2019-05-18T23:15:58.378Z,14.70
2019-05-18T23:18:25.380Z,15.03
2019-05-18T23:20:52.390Z,14.98
2019-05-18T23:23:19.349Z,14.58
2019-05-18T23:25:46.346Z,14.11
2019-05-18T23:28:13.392Z,14.10
2019-05-18T23:30:41.525Z,13.98
2019-05-18T23:33:08.560Z,13.69
2019-05-18T23:35:35.507Z,13.60
2019-05-18T23:38:02.795Z,13.54
2019-05-18T23:40:29.900Z,13.46
2019-05-18T23:42:56.881Z,13.40
2019-05-18T23:45:23.835Z,13.42
2019-05-18T23:47:50.833Z,13.46
2019-05-18T23:50:18.052Z,13.59
2019-05-18T23:52:45.414Z,13.58
2019-05-18T23:55:12.610Z,13.63
2019-05-18T23:57:39.602Z,13.46
